Startpagina
METAR-TAF:

METAR-TAF

Vliegvelden :

Sultan Ismail Petra Airport

Kota Bharu, Maleisië

breedte: 06-10N, lengte: 102-17E, hoogte: 5 m

Actueel weer

Dit bericht is 1 uur en het 2 minuten geleden gemaakt, om 23:00 UTC
Wind 3 kt uit het oostzuidoosten, variërend tussen het noordnoordoosten en het zuiden
Temperatuur 26°C
Vochtigheid 84%
Druk 1013 hPa
Zicht 10 km of meer
Weinig wolken op 2000 ft

METAR: WMKC 192300Z 11003KT 030V180 9999 FEW020 26/23 Q1013

Tijdstip: 08:02 (00:02 UTC)

Verwachting

Dit bericht is 1 uur en het 2 minuten geleden gemaakt, om 23:00 UTC
Verwachting geldig van 20 om 00 UTC tot 21 om 00 UTC
Wind 6 kt uit het oosten
Zicht 10 km of meer
Weinig wolken op 1800 ft
Wijzigt naar
van 20 om 10 UTC tot 20 om 12 UTC
Weinig wolken op 2000 ft

TAF: WMKC 192300Z 2000/2100 08006KT 9999 FEW018 BECMG 2010/2012 FEW020

Waarnemingen en weersverwachtingen van meer dan 4000 vliegvelden (METAR en TAF).

De beschikbare stations zijn de gele en rode punten op de kaart.

Ga met uw muis naar het station om de naam te zien.

Klik dan om waarnemingen en weersverwachtingen te zien.

kaart wijzigen: klik op de groene knoppen met een zwart kruis om in te zoomen, op de groene knop met een streepje om uit te zoomen of op de groene pijlen voor aangrenzende kaarten.


METAR-TAF: